createdAt,value
2022-12-22T00:02:46.570Z,4.84
2022-12-22T00:05:37.472Z,4.79
2022-12-22T00:08:27.535Z,4.76
2022-12-22T00:11:18.141Z,4.71
2022-12-22T00:14:08.362Z,4.71
2022-12-22T00:16:59.044Z,4.68
2022-12-22T00:19:49.904Z,4.67
2022-12-22T00:22:40.077Z,4.67
2022-12-22T00:25:30.536Z,4.75
2022-12-22T00:28:20.693Z,4.67
2022-12-22T00:31:11.380Z,4.66
2022-12-22T00:34:01.685Z,4.68
2022-12-22T00:36:52.142Z,4.68
2022-12-22T00:39:42.687Z,4.72
2022-12-22T00:42:32.941Z,4.71
2022-12-22T00:45:23.642Z,4.74
2022-12-22T00:48:14.132Z,4.75
2022-12-22T00:51:04.936Z,4.79
2022-12-22T00:53:55.145Z,4.86
2022-12-22T00:56:45.576Z,4.86
2022-12-22T00:59:35.979Z,4.85
2022-12-22T01:02:26.308Z,4.87
2022-12-22T01:05:16.920Z,4.90
2022-12-22T01:08:07.091Z,4.91
2022-12-22T01:10:57.453Z,4.84
2022-12-22T01:13:47.619Z,4.85
2022-12-22T01:16:38.478Z,4.86
2022-12-22T01:19:28.567Z,4.86
2022-12-22T01:22:19.085Z,4.88
2022-12-22T01:25:09.551Z,4.88
2022-12-22T01:27:59.788Z,4.89
2022-12-22T01:30:50.435Z,4.90
2022-12-22T01:33:40.875Z,4.93
2022-12-22T01:36:31.129Z,4.93
2022-12-22T01:39:21.286Z,4.94
2022-12-22T01:42:11.817Z,4.93
2022-12-22T01:45:02.476Z,4.96
2022-12-22T01:47:52.813Z,4.96
2022-12-22T01:50:43.387Z,4.99
2022-12-22T01:53:33.580Z,5.05
2022-12-22T01:56:24.130Z,5.11
2022-12-22T01:59:14.263Z,5.13
2022-12-22T02:02:05.306Z,5.13
2022-12-22T02:04:56.088Z,5.23
2022-12-22T02:07:46.247Z,5.16
2022-12-22T02:10:36.947Z,5.17
2022-12-22T02:13:27.062Z,5.25
2022-12-22T02:16:17.624Z,5.31
2022-12-22T02:19:08.074Z,5.28
2022-12-22T02:21:58.660Z,5.30
2022-12-22T02:24:49.216Z,5.30
2022-12-22T02:27:39.529Z,5.30
2022-12-22T02:30:30.124Z,5.38
2022-12-22T02:33:20.200Z,5.33
2022-12-22T02:36:10.571Z,5.35
2022-12-22T02:39:00.557Z,5.36
2022-12-22T02:41:50.894Z,5.38
2022-12-22T02:44:41.137Z,5.41
2022-12-22T02:47:31.631Z,5.42
2022-12-22T02:50:22.261Z,5.42
2022-12-22T02:53:12.525Z,5.44
2022-12-22T02:56:03.077Z,5.45
2022-12-22T02:58:55.379Z,5.46
2022-12-22T03:01:45.997Z,5.49
2022-12-22T03:04:36.508Z,5.51
2022-12-22T03:07:26.513Z,5.53
2022-12-22T03:10:16.992Z,5.53
2022-12-22T03:13:07.282Z,5.53
2022-12-22T03:15:57.649Z,5.59
2022-12-22T03:18:47.915Z,5.61
2022-12-22T03:21:38.519Z,5.63
2022-12-22T03:24:28.790Z,5.64
2022-12-22T03:27:00.662Z,5.62
2022-12-22T03:29:32.168Z,5.60
2022-12-22T03:32:04.014Z,5.62
2022-12-22T03:34:35.539Z,5.62
2022-12-22T03:37:07.133Z,5.68
2022-12-22T03:39:38.672Z,5.71
2022-12-22T03:42:29.147Z,5.70
2022-12-22T03:45:19.596Z,5.73
2022-12-22T03:47:51.130Z,5.74
2022-12-22T03:50:23.076Z,5.74
2022-12-22T03:52:54.607Z,5.73
2022-12-22T03:55:26.462Z,5.73
2022-12-22T03:57:57.977Z,5.74
2022-12-22T04:00:29.826Z,5.75
2022-12-22T04:03:01.470Z,5.71
2022-12-22T04:05:33.352Z,5.72
2022-12-22T04:08:04.867Z,5.75
2022-12-22T04:10:55.224Z,5.74
2022-12-22T04:13:26.730Z,5.84
2022-12-22T04:15:58.622Z,5.86
2022-12-22T04:18:30.176Z,5.88
2022-12-22T04:21:02.021Z,5.84
2022-12-22T04:23:33.567Z,5.83
2022-12-22T04:26:05.419Z,5.86
2022-12-22T04:28:36.956Z,5.87
2022-12-22T04:31:08.498Z,6.06
2022-12-22T04:33:40.054Z,6.05
2022-12-22T04:36:12.016Z,6.04
2022-12-22T04:38:43.580Z,6.04
2022-12-22T04:41:15.403Z,6.03
2022-12-22T04:43:46.921Z,6.11
2022-12-22T04:46:18.483Z,6.16
2022-12-22T04:48:53.270Z,6.08
2022-12-22T04:51:29.678Z,6.08
2022-12-22T04:54:01.191Z,6.07
2022-12-22T04:56:33.109Z,6.21
2022-12-22T04:59:04.638Z,6.25
2022-12-22T05:01:36.729Z,6.38
2022-12-22T05:04:08.294Z,6.38
2022-12-22T05:06:39.834Z,6.45
2022-12-22T05:09:11.358Z,6.40
2022-12-22T05:11:43.276Z,6.40
2022-12-22T05:14:14.780Z,6.46
2022-12-22T05:16:46.726Z,6.48
2022-12-22T05:19:20.507Z,6.48
2022-12-22T05:21:52.680Z,6.46
2022-12-22T05:24:24.199Z,6.52
2022-12-22T05:26:56.047Z,6.49
2022-12-22T05:29:27.596Z,6.52
2022-12-22T05:31:59.462Z,6.52
2022-12-22T05:34:30.974Z,6.53
2022-12-22T05:37:02.868Z,6.57
2022-12-22T05:39:34.381Z,6.59
2022-12-22T05:42:06.218Z,6.64
2022-12-22T05:44:37.725Z,6.68
2022-12-22T05:47:09.548Z,6.69
2022-12-22T05:49:41.068Z,6.70
2022-12-22T05:52:12.941Z,6.71
2022-12-22T05:54:44.450Z,5.24
2022-12-22T05:57:16.770Z,6.66
2022-12-22T05:59:48.284Z,6.68
2022-12-22T06:02:20.553Z,6.71
2022-12-22T06:04:52.310Z,6.73
2022-12-22T06:07:24.181Z,6.78
2022-12-22T06:09:55.697Z,6.78
2022-12-22T06:12:27.590Z,6.81
2022-12-22T06:14:59.119Z,6.82
2022-12-22T06:17:31.067Z,6.82
2022-12-22T06:20:02.593Z,6.83
2022-12-22T06:22:34.444Z,6.86
2022-12-22T06:25:06.031Z,6.89
2022-12-22T06:27:37.859Z,6.88
2022-12-22T06:30:09.416Z,6.87
2022-12-22T06:32:41.369Z,6.89
2022-12-22T06:35:12.924Z,6.90
2022-12-22T06:37:44.919Z,6.86
2022-12-22T06:40:16.435Z,6.88
2022-12-22T06:43:09.123Z,6.90
2022-12-22T06:45:41.023Z,6.92
2022-12-22T06:48:13.012Z,6.93
2022-12-22T06:50:44.526Z,6.94
2022-12-22T06:53:16.487Z,6.97
2022-12-22T06:55:48.152Z,7.01
2022-12-22T06:58:20.136Z,6.93
2022-12-22T07:00:51.700Z,6.96
2022-12-22T07:03:23.769Z,6.96
2022-12-22T07:05:55.453Z,6.95
2022-12-22T07:08:27.007Z,7.00
2022-12-22T07:10:58.585Z,6.94
2022-12-22T07:13:31.989Z,6.97
2022-12-22T07:16:03.647Z,7.00
2022-12-22T07:18:35.200Z,6.97
2022-12-22T07:21:07.093Z,7.01
2022-12-22T07:23:38.641Z,7.00
2022-12-22T07:26:10.220Z,7.02
2022-12-22T07:28:41.852Z,7.04
2022-12-22T07:31:13.806Z,7.05
2022-12-22T07:33:45.358Z,7.03
2022-12-22T07:36:17.383Z,7.02
2022-12-22T07:38:48.915Z,7.05
2022-12-22T07:41:39.614Z,7.04
2022-12-22T07:44:11.135Z,7.07
2022-12-22T07:46:43.039Z,7.11
2022-12-22T07:49:33.513Z,7.10
2022-12-22T07:52:05.298Z,7.13
2022-12-22T07:54:41.711Z,4.58
2022-12-22T07:57:14.110Z,7.12
2022-12-22T07:59:45.672Z,7.14
2022-12-22T08:02:17.692Z,7.13
2022-12-22T08:04:50.450Z,7.22
2022-12-22T08:07:22.352Z,7.22
2022-12-22T08:09:53.882Z,7.20
2022-12-22T08:12:25.736Z,7.17
2022-12-22T08:14:57.541Z,7.21
2022-12-22T08:17:29.418Z,7.23
2022-12-22T08:20:00.922Z,7.23
2022-12-22T08:22:33.167Z,7.18
2022-12-22T08:25:04.712Z,7.16
2022-12-22T08:27:40.114Z,7.16
2022-12-22T08:30:11.653Z,7.23
2022-12-22T08:32:43.530Z,7.19
2022-12-22T08:35:15.060Z,7.20
2022-12-22T08:37:46.943Z,7.20
2022-12-22T08:40:18.549Z,7.21
2022-12-22T08:42:50.432Z,7.19
2022-12-22T08:45:21.944Z,7.26
2022-12-22T08:47:53.467Z,7.21
2022-12-22T08:50:24.983Z,7.29
2022-12-22T08:52:56.849Z,7.29
2022-12-22T08:55:28.399Z,7.29
2022-12-22T08:58:00.237Z,7.25
2022-12-22T09:00:31.857Z,7.33
2022-12-22T09:03:03.901Z,7.37
2022-12-22T09:05:38.488Z,7.35
2022-12-22T09:08:10.380Z,7.34
2022-12-22T09:10:41.891Z,7.36
2022-12-22T09:13:13.431Z,7.40
2022-12-22T09:15:45.075Z,7.34
2022-12-22T09:18:17.028Z,7.42
2022-12-22T09:20:49.281Z,7.42
2022-12-22T09:23:21.134Z,7.41
2022-12-22T09:25:52.649Z,7.38
2022-12-22T09:28:24.487Z,7.36
2022-12-22T09:30:56.005Z,7.38
2022-12-22T09:33:27.801Z,7.47
2022-12-22T09:35:59.308Z,7.46
2022-12-22T09:38:31.140Z,7.39
2022-12-22T09:41:02.682Z,7.46
2022-12-22T09:43:34.570Z,7.53
2022-12-22T09:46:06.145Z,7.48
2022-12-22T09:48:38.028Z,7.47
2022-12-22T09:51:09.524Z,7.51
2022-12-22T09:53:41.046Z,7.47
2022-12-22T09:56:12.624Z,7.44
2022-12-22T09:58:44.182Z,7.47
2022-12-22T10:01:15.786Z,7.48
2022-12-22T10:03:47.817Z,7.58
2022-12-22T10:06:19.433Z,7.61
2022-12-22T10:08:51.318Z,7.67
2022-12-22T10:11:22.881Z,7.58
2022-12-22T10:13:54.844Z,7.59
2022-12-22T10:16:26.410Z,7.67
2022-12-22T10:18:58.246Z,7.68
2022-12-22T10:21:29.923Z,7.68
2022-12-22T10:24:01.481Z,7.74
2022-12-22T10:26:33.016Z,7.76
2022-12-22T10:29:04.901Z,7.71
2022-12-22T10:31:37.074Z,7.67
2022-12-22T10:34:08.900Z,7.66
2022-12-22T10:36:40.497Z,7.68
2022-12-22T10:39:12.389Z,7.74
2022-12-22T10:41:44.148Z,7.75
2022-12-22T10:44:15.982Z,7.80
2022-12-22T10:46:47.483Z,7.85
2022-12-22T10:49:19.543Z,7.84
2022-12-22T10:51:51.108Z,7.89
2022-12-22T10:54:22.809Z,7.86
2022-12-22T10:56:54.325Z,7.81
2022-12-22T10:59:26.178Z,7.83
2022-12-22T11:01:57.857Z,7.88
2022-12-22T11:04:29.869Z,7.91
2022-12-22T11:07:01.370Z,7.86
2022-12-22T11:09:35.026Z,7.96
2022-12-22T11:12:07.018Z,7.94
2022-12-22T11:14:38.851Z,7.97
2022-12-22T11:17:10.463Z,7.98
2022-12-22T11:19:43.078Z,7.37
2022-12-22T11:22:14.588Z,8.16
2022-12-22T11:24:46.643Z,8.13
2022-12-22T11:27:18.504Z,8.13
2022-12-22T11:29:50.087Z,8.11
2022-12-22T11:32:22.213Z,8.07
2022-12-22T11:34:53.731Z,8.20
2022-12-22T11:37:25.247Z,8.15
2022-12-22T11:39:59.579Z,8.16
2022-12-22T11:42:31.333Z,8.29
2022-12-22T11:45:02.857Z,8.26
2022-12-22T11:47:34.704Z,8.21
2022-12-22T11:50:57.471Z,8.33
2022-12-22T11:52:58.015Z,8.33
2022-12-22T11:55:30.720Z,8.35
2022-12-22T11:58:02.622Z,8.39
2022-12-22T12:01:11.814Z,8.43
2022-12-22T12:03:25.734Z,8.47
2022-12-22T12:05:57.396Z,8.46
2022-12-22T12:08:29.729Z,8.59
2022-12-22T12:11:01.262Z,8.59
2022-12-22T12:13:37.116Z,8.67
2022-12-22T12:16:09.389Z,8.61
2022-12-22T12:18:41.340Z,8.55
2022-12-22T12:21:12.860Z,8.58
2022-12-22T12:23:44.763Z,8.64
2022-12-22T12:26:16.340Z,8.67
2022-12-22T12:28:48.147Z,8.72
2022-12-22T12:31:25.980Z,8.67
2022-12-22T12:34:01.272Z,8.66
2022-12-22T12:36:32.837Z,8.69
2022-12-22T12:39:07.819Z,8.70
2022-12-22T12:41:40.138Z,8.73
2022-12-22T12:44:12.096Z,8.72
2022-12-22T12:46:43.740Z,8.76
2022-12-22T12:49:16.668Z,8.80
2022-12-22T12:51:50.676Z,8.80
2022-12-22T12:54:22.558Z,8.79
2022-12-22T12:56:54.065Z,8.80
2022-12-22T12:59:25.897Z,8.85
2022-12-22T13:01:57.669Z,8.76
2022-12-22T13:04:29.780Z,8.75
2022-12-22T13:07:01.419Z,8.71
2022-12-22T13:09:51.279Z,8.75
2022-12-22T13:12:24.787Z,8.60
2022-12-22T13:14:57.062Z,8.63
2022-12-22T13:17:28.603Z,8.64
2022-12-22T13:20:00.435Z,8.59
2022-12-22T13:22:32.152Z,8.60
2022-12-22T13:25:04.395Z,8.60
2022-12-22T13:27:35.922Z,8.59
2022-12-22T13:30:11.359Z,8.65
2022-12-22T13:32:44.615Z,8.68
2022-12-22T13:35:33.542Z,8.67
2022-12-22T13:38:07.085Z,8.73
2022-12-22T13:40:38.589Z,8.77
2022-12-22T13:43:10.499Z,8.78
2022-12-22T13:45:42.053Z,8.81
2022-12-22T13:48:13.969Z,8.76
2022-12-22T13:50:45.529Z,8.76
2022-12-22T13:53:41.608Z,8.76
2022-12-22T13:56:08.869Z,8.82
2022-12-22T13:58:40.817Z,8.82
2022-12-22T14:01:12.390Z,8.75
2022-12-22T14:04:00.246Z,8.76
2022-12-22T14:06:33.187Z,8.78
2022-12-22T14:09:05.041Z,8.74
2022-12-22T14:11:36.562Z,8.71
2022-12-22T14:14:08.389Z,8.75
2022-12-22T14:16:40.541Z,8.70
2022-12-22T14:19:12.598Z,8.73
2022-12-22T14:21:44.157Z,8.74
2022-12-22T14:24:16.039Z,8.69
2022-12-22T14:26:47.539Z,8.69
2022-12-22T14:29:19.492Z,8.70
2022-12-22T14:31:51.083Z,8.64
2022-12-22T14:34:23.073Z,8.62
2022-12-22T14:36:54.621Z,8.63
2022-12-22T14:39:26.548Z,8.63
2022-12-22T14:41:58.067Z,8.63
2022-12-22T14:44:30.014Z,8.59
2022-12-22T14:47:01.539Z,8.61
2022-12-22T14:49:33.616Z,8.57
2022-12-22T14:52:05.138Z,8.58
2022-12-22T14:54:37.063Z,8.53
2022-12-22T14:57:15.356Z,8.52
2022-12-22T14:59:47.860Z,8.53
2022-12-22T15:02:19.508Z,8.47
2022-12-22T15:04:51.507Z,8.45
2022-12-22T15:08:04.131Z,8.43
2022-12-22T15:10:16.341Z,8.40
2022-12-22T15:12:48.577Z,8.41
2022-12-22T15:15:20.790Z,8.41
2022-12-22T15:17:52.332Z,8.38
2022-12-22T15:20:23.910Z,8.37
2022-12-22T15:22:55.427Z,8.36
2022-12-22T15:25:27.239Z,8.36
2022-12-22T15:27:58.759Z,8.33
2022-12-22T15:30:30.381Z,8.30
2022-12-22T15:33:02.167Z,8.29
2022-12-22T15:35:34.069Z,8.27
2022-12-22T15:38:05.584Z,8.28
2022-12-22T15:40:37.453Z,8.26
2022-12-22T15:43:22.709Z,8.25
2022-12-22T15:46:00.891Z,8.22
2022-12-22T15:48:33.039Z,8.20
2022-12-22T15:51:04.964Z,8.18
2022-12-22T15:53:36.992Z,8.18
2022-12-22T15:56:12.507Z,8.17
2022-12-22T15:58:49.002Z,8.17
2022-12-22T16:01:20.585Z,8.17
2022-12-22T16:03:52.296Z,8.13
2022-12-22T16:06:23.955Z,8.15
2022-12-22T16:08:55.818Z,8.14
2022-12-22T16:11:27.342Z,8.20
2022-12-22T16:13:59.191Z,8.24
2022-12-22T16:16:30.762Z,8.19
2022-12-22T16:19:02.696Z,8.18
2022-12-22T16:21:34.195Z,8.18
2022-12-22T16:24:06.055Z,8.14
2022-12-22T16:26:37.576Z,8.21
2022-12-22T16:29:09.193Z,8.19
2022-12-22T16:31:40.787Z,8.15
2022-12-22T16:34:13.773Z,8.18
2022-12-22T16:36:45.328Z,8.16
2022-12-22T16:39:16.891Z,8.20
2022-12-22T16:41:59.872Z,8.18
2022-12-22T16:47:21.355Z,8.21
2022-12-22T16:49:53.382Z,8.15
2022-12-22T16:52:24.894Z,8.08
2022-12-22T16:54:56.835Z,8.01
2022-12-22T16:57:28.352Z,7.93
2022-12-22T16:59:59.882Z,7.86
2022-12-22T17:02:31.482Z,7.77
2022-12-22T17:05:03.510Z,7.67
2022-12-22T17:07:35.035Z,7.59
2022-12-22T17:10:06.904Z,7.54
2022-12-22T17:12:38.401Z,7.46
2022-12-22T17:15:09.959Z,7.35
2022-12-22T17:17:42.539Z,7.29
2022-12-22T17:20:14.842Z,7.24
2022-12-22T17:22:46.393Z,7.17
2022-12-22T17:25:18.305Z,7.14
2022-12-22T17:27:49.884Z,7.09
2022-12-22T17:30:22.336Z,7.07
2022-12-22T17:32:53.905Z,7.03
2022-12-22T17:35:25.432Z,7.04
2022-12-22T17:37:56.986Z,7.06
2022-12-22T17:40:31.026Z,7.08
2022-12-22T17:43:02.621Z,7.07
2022-12-22T17:45:34.397Z,7.17
2022-12-22T17:48:05.897Z,7.22
2022-12-22T17:50:37.757Z,7.25
2022-12-22T17:53:09.274Z,7.26
2022-12-22T17:56:07.012Z,7.26
2022-12-22T17:58:32.525Z,7.23
2022-12-22T18:01:04.387Z,7.19
2022-12-22T18:03:35.993Z,7.22
2022-12-22T18:06:10.433Z,7.17
2022-12-22T18:08:45.815Z,7.14
2022-12-22T18:11:17.689Z,7.09
2022-12-22T18:13:49.210Z,7.14
2022-12-22T18:16:21.312Z,7.05
2022-12-22T18:18:52.913Z,6.97
2022-12-22T18:21:24.978Z,6.89
2022-12-22T18:23:56.493Z,6.86
2022-12-22T18:26:28.441Z,6.86
2022-12-22T18:29:00.095Z,6.85
2022-12-22T18:31:32.103Z,6.85
2022-12-22T18:34:03.685Z,6.84
2022-12-22T18:36:35.780Z,6.82
2022-12-22T18:39:11.830Z,6.95
2022-12-22T18:41:46.788Z,6.96
2022-12-22T18:44:18.375Z,6.97
2022-12-22T18:46:50.343Z,6.93
2022-12-22T18:49:21.874Z,6.90
2022-12-22T18:51:53.801Z,6.85
2022-12-22T18:54:25.389Z,6.71
2022-12-22T18:56:57.213Z,6.66
2022-12-22T18:59:28.715Z,6.65
2022-12-22T19:02:00.566Z,6.60
2022-12-22T19:04:32.186Z,6.56
2022-12-22T19:07:03.873Z,6.52
2022-12-22T19:09:35.397Z,6.47
2022-12-22T19:12:07.262Z,6.44
2022-12-22T19:14:38.825Z,6.42
2022-12-22T19:17:10.722Z,6.40
2022-12-22T19:19:42.252Z,6.38
2022-12-22T19:22:14.185Z,6.35
2022-12-22T19:24:45.778Z,6.35
2022-12-22T19:27:17.628Z,6.31
2022-12-22T19:29:49.150Z,6.27
2022-12-22T19:32:20.996Z,6.25
2022-12-22T19:34:52.670Z,6.24
2022-12-22T19:37:24.659Z,6.19
2022-12-22T19:39:56.510Z,6.15
2022-12-22T19:42:28.037Z,6.10
2022-12-22T19:45:01.203Z,6.08
2022-12-22T19:47:35.609Z,6.03
2022-12-22T19:50:07.421Z,5.99
2022-12-22T19:52:39.015Z,5.95
2022-12-22T19:55:10.581Z,5.90
2022-12-22T19:57:42.196Z,5.87
2022-12-22T20:00:14.197Z,5.84
2022-12-22T20:02:46.084Z,5.83
2022-12-22T20:05:18.076Z,5.88
2022-12-22T20:07:49.581Z,5.86
2022-12-22T20:10:21.630Z,5.87
2022-12-22T20:12:53.140Z,5.87
2022-12-22T20:15:24.855Z,5.87
2022-12-22T20:17:56.454Z,5.91
2022-12-22T20:20:28.322Z,5.88
2022-12-22T20:22:59.833Z,5.87
2022-12-22T20:25:31.692Z,5.85
2022-12-22T20:28:03.277Z,5.84
2022-12-22T20:30:34.976Z,5.83
2022-12-22T20:33:06.518Z,5.85
2022-12-22T20:35:38.174Z,5.86
2022-12-22T20:38:09.782Z,5.83
2022-12-22T20:40:41.760Z,5.87
2022-12-22T20:43:13.321Z,5.85
2022-12-22T20:45:45.014Z,5.35
2022-12-22T20:48:16.626Z,5.85
2022-12-22T20:50:48.516Z,5.84
2022-12-22T20:53:20.325Z,5.85
2022-12-22T20:55:51.913Z,5.86
2022-12-22T20:58:23.465Z,5.88
2022-12-22T21:00:55.551Z,5.89
2022-12-22T21:03:27.201Z,5.87
2022-12-22T21:05:58.799Z,5.87
2022-12-22T21:08:30.310Z,5.85
2022-12-22T21:11:01.914Z,5.83
2022-12-22T21:13:33.536Z,5.79
2022-12-22T21:16:05.417Z,5.73
2022-12-22T21:18:36.920Z,5.71
2022-12-22T21:21:08.867Z,5.70
2022-12-22T21:23:40.396Z,5.70
2022-12-22T21:26:12.325Z,5.71
2022-12-22T21:28:43.841Z,5.72
2022-12-22T21:31:15.866Z,5.72
2022-12-22T21:33:47.531Z,5.68
2022-12-22T21:36:19.192Z,5.65
2022-12-22T21:38:50.755Z,5.63
2022-12-22T21:41:41.182Z,5.61
2022-12-22T21:44:13.285Z,5.63
2022-12-22T21:46:45.274Z,5.61
2022-12-22T21:49:16.941Z,5.53
2022-12-22T21:51:48.642Z,5.48
2022-12-22T21:54:20.254Z,5.44
2022-12-22T21:56:52.125Z,5.44
2022-12-22T21:59:23.708Z,5.40
2022-12-22T22:01:56.784Z,5.38
2022-12-22T22:04:28.475Z,5.36
2022-12-22T22:07:00.003Z,5.33
2022-12-22T22:09:31.517Z,5.31
2022-12-22T22:12:28.015Z,5.29
2022-12-22T22:15:01.872Z,5.28
2022-12-22T22:17:33.692Z,5.25
2022-12-22T22:20:05.206Z,5.26
2022-12-22T22:22:37.065Z,5.26
2022-12-22T22:25:08.588Z,5.27
2022-12-22T22:27:45.808Z,5.29
2022-12-22T22:30:19.146Z,5.27
2022-12-22T22:32:50.975Z,5.26
2022-12-22T22:35:22.540Z,5.22
2022-12-22T22:37:55.094Z,5.23
2022-12-22T22:40:26.597Z,5.24
2022-12-22T22:42:58.436Z,5.24
2022-12-22T22:45:29.959Z,5.27
2022-12-22T22:48:06.304Z,5.26
2022-12-22T22:50:41.517Z,5.26
2022-12-22T22:53:13.543Z,5.28
2022-12-22T22:55:45.477Z,5.30
2022-12-22T22:58:17.028Z,5.34
2022-12-22T23:00:48.918Z,5.36
2022-12-22T23:03:20.511Z,5.37
2022-12-22T23:05:52.595Z,5.27
2022-12-22T23:08:24.102Z,5.28
2022-12-22T23:10:56.121Z,5.29
2022-12-22T23:13:27.636Z,5.26
2022-12-22T23:15:59.534Z,5.28
2022-12-22T23:18:31.166Z,5.30
2022-12-22T23:21:03.153Z,5.31
2022-12-22T23:23:34.742Z,5.27
2022-12-22T23:26:06.656Z,5.28
2022-12-22T23:28:38.178Z,5.31
2022-12-22T23:31:09.839Z,5.31
2022-12-22T23:33:41.382Z,5.31
2022-12-22T23:36:13.259Z,5.32
2022-12-22T23:38:44.828Z,5.30
2022-12-22T23:41:16.757Z,5.29
2022-12-22T23:43:48.273Z,5.30
2022-12-22T23:46:20.289Z,5.26
2022-12-22T23:48:52.099Z,5.25
2022-12-22T23:51:23.978Z,5.47
2022-12-22T23:53:55.506Z,5.50
2022-12-22T23:56:27.384Z,5.50
2022-12-22T23:58:58.887Z,5.48
